Amani Gomvu Airport


Codes: HTAG/
Name: Amani Gomvu Airport
City: Kutani
Country: Tanzania
Elevation: 114 ft.

Photos at Amani Gomvu Airport


   Photos courtesy of SpottingLog. You can add your own sightings and photos by signing up for a free trial today.



No photos found.

Weather at Amani Gomvu Airport


Time (UTC)DescriptionTempratureWindCloud coverageVisibilityPressureHumidity
13-Jun-2024 03:00Clear Sky22°C11 mph, SW6%10000m1016hPa83%
13-Jun-2024 06:00Clear Sky23°C13 mph, SW8%10000m1018hPa77%
13-Jun-2024 09:00Light Rain27°C18 mph, S10%10000m1018hPa67%
13-Jun-2024 12:00Clear Sky27°C16 mph, S9%10000m1016hPa61%
13-Jun-2024 15:00Clear Sky25°C13 mph, SE0%10000m1015hPa67%
13-Jun-2024 18:00Clear Sky24°C11 mph, SE0%10000m1017hPa70%
13-Jun-2024 21:00Clear Sky24°C11 mph, SE0%10000m1017hPa70%
14-Jun-2024 00:00Clear Sky24°C11 mph, S0%10000m1015hPa70%
14-Jun-2024 03:00Clear Sky24°C13 mph, S2%10000m1016hPa72%
14-Jun-2024 06:00Clear Sky25°C13 mph, S3%10000m1019hPa71%
14-Jun-2024 09:00Light Rain27°C18 mph, S18%10000m1018hPa63%
14-Jun-2024 12:00Few Clouds26°C16 mph, S24%10000m1015hPa58%
14-Jun-2024 15:00Scattered Clouds25°C13 mph, SE40%10000m1015hPa63%
14-Jun-2024 18:00Scattered Clouds24°C11 mph, SE27%10000m1016hPa66%
14-Jun-2024 21:00Scattered Clouds24°C11 mph, S46%10000m1016hPa67%
15-Jun-2024 00:00Scattered Clouds23°C9 mph, S47%10000m1014hPa74%
15-Jun-2024 03:00Scattered Clouds22°C11 mph, S48%10000m1015hPa80%
15-Jun-2024 06:00Scattered Clouds23°C13 mph, SW36%10000m1017hPa81%
15-Jun-2024 09:00Clear Sky27°C16 mph, S7%10000m1016hPa67%
15-Jun-2024 12:00Clear Sky27°C13 mph, S10%10000m1013hPa62%
15-Jun-2024 15:00Scattered Clouds25°C11 mph, SE44%10000m1013hPa68%
15-Jun-2024 18:00Broken Clouds24°C11 mph, SE57%10000m1015hPa74%
15-Jun-2024 21:00Overcast Clouds24°C11 mph, S92%10000m1015hPa78%
16-Jun-2024 00:00Scattered Clouds24°C13 mph, S48%10000m1013hPa80%
16-Jun-2024 03:00Clear Sky24°C11 mph, S3%10000m1014hPa77%
16-Jun-2024 06:00Clear Sky26°C13 mph, S4%10000m1016hPa73%
16-Jun-2024 09:00Light Rain27°C16 mph, S3%10000m1015hPa67%
16-Jun-2024 12:00Light Rain27°C16 mph, S7%10000m1013hPa63%
16-Jun-2024 15:00Clear Sky26°C13 mph, SE3%10000m1014hPa72%
16-Jun-2024 18:00Clear Sky25°C11 mph, SE3%10000m1015hPa75%
16-Jun-2024 21:00Clear Sky25°C11 mph, S0%10000m1015hPa76%
17-Jun-2024 00:00Clear Sky24°C13 mph, S0%10000m1013hPa78%
17-Jun-2024 03:00Clear Sky24°C11 mph, S0%10000m1015hPa80%
17-Jun-2024 06:00Clear Sky25°C13 mph, SW9%10000m1018hPa82%
17-Jun-2024 09:00Few Clouds27°C13 mph, S11%10000m1016hPa68%
17-Jun-2024 12:00Clear Sky28°C16 mph, S8%10000m1014hPa64%
17-Jun-2024 15:00Scattered Clouds26°C13 mph, SE48%10000m1014hPa74%
17-Jun-2024 18:00Broken Clouds26°C16 mph, SE53%10000m1016hPa77%
17-Jun-2024 21:00Overcast Clouds26°C16 mph, SE100%10000m1015hPa78%
18-Jun-2024 00:00Light Rain26°C16 mph, SE100%10000m1014hPa75%